sensor_id;sensor_type;location;lat;lon;timestamp;temperature;humidity
3816;DHT22;1923;48.154;11.536;2022-11-20T00:01:04;7.40;99.90
3816;DHT22;1923;48.154;11.536;2022-11-20T00:03:32;7.50;99.90
3816;DHT22;1923;48.154;11.536;2022-11-20T00:06:01;7.50;99.90
3816;DHT22;1923;48.154;11.536;2022-11-20T00:08:30;7.50;99.90
3816;DHT22;1923;48.154;11.536;2022-11-20T00:11:02;7.50;99.90
3816;DHT22;1923;48.154;11.536;2022-11-20T00:13:31;7.50;99.90
3816;DHT22;1923;48.154;11.536;2022-11-20T00:16:02;7.60;99.90
3816;DHT22;1923;48.154;11.536;2022-11-20T00:18:30;7.50;99.90
3816;DHT22;1923;48.154;11.536;2022-11-20T00:21:02;7.60;99.90
3816;DHT22;1923;48.154;11.536;2022-11-20T00:23:32;7.70;99.90
3816;DHT22;1923;48.154;11.536;2022-11-20T00:26:05;7.70;99.90
3816;DHT22;1923;48.154;11.536;2022-11-20T00:28:34;7.70;99.90
3816;DHT22;1923;48.154;11.536;2022-11-20T00:31:03;7.70;99.90
3816;DHT22;1923;48.154;11.536;2022-11-20T00:33:31;7.80;99.90
3816;DHT22;1923;48.154;11.536;2022-11-20T00:36:00;7.80;99.90
3816;DHT22;1923;48.154;11.536;2022-11-20T00:38:29;7.60;99.90
3816;DHT22;1923;48.154;11.536;2022-11-20T00:41:00;7.70;99.90
3816;DHT22;1923;48.154;11.536;2022-11-20T00:43:28;7.60;99.90
3816;DHT22;1923;48.154;11.536;2022-11-20T00:45:57;7.60;99.90
3816;DHT22;1923;48.154;11.536;2022-11-20T00:48:25;7.60;99.90
3816;DHT22;1923;48.154;11.536;2022-11-20T00:50:54;7.60;99.90
3816;DHT22;1923;48.154;11.536;2022-11-20T00:53:22;7.50;99.90
3816;DHT22;1923;48.154;11.536;2022-11-20T00:55:54;7.60;99.90
3816;DHT22;1923;48.154;11.536;2022-11-20T13:22:27;7.60;99.90
3816;DHT22;1923;48.154;11.536;2022-11-20T13:24:57;9.20;99.90
3816;DHT22;1923;48.154;11.536;2022-11-20T13:27:24;8.90;99.90
3816;DHT22;1923;48.154;11.536;2022-11-20T13:30:01;8.90;99.90
3816;DHT22;1923;48.154;11.536;2022-11-20T13:32:30;8.80;99.90
3816;DHT22;1923;48.154;11.536;2022-11-20T13:35:00;8.90;99.90
3816;DHT22;1923;48.154;11.536;2022-11-20T13:37:32;8.90;99.90
3816;DHT22;1923;48.154;11.536;2022-11-20T13:40:13;9.00;99.90
3816;DHT22;1923;48.154;11.536;2022-11-20T13:42:55;9.10;99.90
3816;DHT22;1923;48.154;11.536;2022-11-20T13:45:25;8.90;99.90
3816;DHT22;1923;48.154;11.536;2022-11-20T13:47:55;9.00;99.90
3816;DHT22;1923;48.154;11.536;2022-11-20T13:50:40;9.00;99.90
3816;DHT22;1923;48.154;11.536;2022-11-20T13:53:25;9.10;99.90
3816;DHT22;1923;48.154;11.536;2022-11-20T13:56:00;9.20;99.90
3816;DHT22;1923;48.154;11.536;2022-11-20T13:58:40;9.20;99.90
3816;DHT22;1923;48.154;11.536;2022-11-20T14:01:16;9.30;99.90
3816;DHT22;1923;48.154;11.536;2022-11-20T14:03:45;9.10;99.90
3816;DHT22;1923;48.154;11.536;2022-11-20T14:06:34;9.10;99.90
3816;DHT22;1923;48.154;11.536;2022-11-20T14:09:12;9.00;99.90
3816;DHT22;1923;48.154;11.536;2022-11-20T14:11:46;9.10;99.90
3816;DHT22;1923;48.154;11.536;2022-11-20T14:14:17;9.00;99.90
3816;DHT22;1923;48.154;11.536;2022-11-20T14:16:48;9.00;99.90
3816;DHT22;1923;48.154;11.536;2022-11-20T14:19:26;9.00;99.90
3816;DHT22;1923;48.154;11.536;2022-11-20T14:22:07;9.00;99.90
3816;DHT22;1923;48.154;11.536;2022-11-20T14:24:37;9.10;99.90
3816;DHT22;1923;48.154;11.536;2022-11-20T14:27:12;9.10;99.90
3816;DHT22;1923;48.154;11.536;2022-11-20T14:29:41;9.20;99.90
3816;DHT22;1923;48.154;11.536;2022-11-20T14:32:09;9.20;99.90
3816;DHT22;1923;48.154;11.536;2022-11-20T14:34:40;9.20;99.90
3816;DHT22;1923;48.154;11.536;2022-11-20T14:37:12;9.10;99.90
3816;DHT22;1923;48.154;11.536;2022-11-20T14:39:49;9.10;99.90
3816;DHT22;1923;48.154;11.536;2022-11-20T14:42:21;9.10;99.90
3816;DHT22;1923;48.154;11.536;2022-11-20T14:44:50;9.00;99.90
3816;DHT22;1923;48.154;11.536;2022-11-20T14:47:20;9.00;99.90
3816;DHT22;1923;48.154;11.536;2022-11-20T14:49:50;8.90;99.90
3816;DHT22;1923;48.154;11.536;2022-11-20T14:52:20;8.90;99.90
3816;DHT22;1923;48.154;11.536;2022-11-20T14:54:51;8.80;99.90
3816;DHT22;1923;48.154;11.536;2022-11-20T14:57:25;8.80;99.90
3816;DHT22;1923;48.154;11.536;2022-11-20T15:00:17;8.90;99.90
3816;DHT22;1923;48.154;11.536;2022-11-20T15:02:47;8.70;99.90
3816;DHT22;1923;48.154;11.536;2022-11-20T15:05:16;8.70;99.90
3816;DHT22;1923;48.154;11.536;2022-11-20T15:07:46;8.70;99.90
3816;DHT22;1923;48.154;11.536;2022-11-20T15:10:22;8.60;99.90
3816;DHT22;1923;48.154;11.536;2022-11-20T15:12:51;8.60;99.90
3816;DHT22;1923;48.154;11.536;2022-11-20T15:15:24;8.50;99.90
3816;DHT22;1923;48.154;11.536;2022-11-20T15:17:53;8.50;99.90
3816;DHT22;1923;48.154;11.536;2022-11-20T15:20:24;8.50;99.90
3816;DHT22;1923;48.154;11.536;2022-11-20T15:22:53;8.50;99.90
3816;DHT22;1923;48.154;11.536;2022-11-20T15:25:22;8.50;99.90
3816;DHT22;1923;48.154;11.536;2022-11-20T15:27:54;8.50;99.90
3816;DHT22;1923;48.154;11.536;2022-11-20T15:30:23;8.50;99.90
3816;DHT22;1923;48.154;11.536;2022-11-20T15:32:51;8.60;99.90
3816;DHT22;1923;48.154;11.536;2022-11-20T15:35:19;8.70;99.90
3816;DHT22;1923;48.154;11.536;2022-11-20T15:37:47;8.60;99.90
3816;DHT22;1923;48.154;11.536;2022-11-20T15:40:15;8.60;99.90
3816;DHT22;1923;48.154;11.536;2022-11-20T15:42:45;8.50;99.90
3816;DHT22;1923;48.154;11.536;2022-11-20T15:45:28;8.40;99.90
3816;DHT22;1923;48.154;11.536;2022-11-20T15:47:57;8.40;99.90
3816;DHT22;1923;48.154;11.536;2022-11-20T15:50:30;8.30;99.90
3816;DHT22;1923;48.154;11.536;2022-11-20T15:53:01;8.20;99.90
3816;DHT22;1923;48.154;11.536;2022-11-20T15:55:30;8.10;99.90
3816;DHT22;1923;48.154;11.536;2022-11-20T15:58:00;7.90;99.90
3816;DHT22;1923;48.154;11.536;2022-11-20T16:00:29;7.90;99.90
3816;DHT22;1923;48.154;11.536;2022-11-20T16:02:56;7.80;99.90
3816;DHT22;1923;48.154;11.536;2022-11-20T16:05:28;7.80;99.90
3816;DHT22;1923;48.154;11.536;2022-11-20T16:07:56;7.80;99.90
3816;DHT22;1923;48.154;11.536;2022-11-20T16:10:24;7.80;99.90
3816;DHT22;1923;48.154;11.536;2022-11-20T16:12:52;7.70;99.90
3816;DHT22;1923;48.154;11.536;2022-11-20T16:15:39;7.60;99.90
3816;DHT22;1923;48.154;11.536;2022-11-20T16:18:16;7.60;99.90
3816;DHT22;1923;48.154;11.536;2022-11-20T16:20:45;7.50;99.90
3816;DHT22;1923;48.154;11.536;2022-11-20T16:23:13;7.50;99.90
3816;DHT22;1923;48.154;11.536;2022-11-20T16:25:42;7.50;99.90
3816;DHT22;1923;48.154;11.536;2022-11-20T16:28:11;7.30;99.90
3816;DHT22;1923;48.154;11.536;2022-11-20T16:30:46;7.10;99.90
3816;DHT22;1923;48.154;11.536;2022-11-20T16:33:15;7.10;99.90
3816;DHT22;1923;48.154;11.536;2022-11-20T16:35:44;6.90;99.90
3816;DHT22;1923;48.154;11.536;2022-11-20T16:38:12;7.10;99.90
3816;DHT22;1923;48.154;11.536;2022-11-20T16:40:40;7.00;99.90
3816;DHT22;1923;48.154;11.536;2022-11-20T16:43:09;7.00;99.90
3816;DHT22;1923;48.154;11.536;2022-11-20T16:45:40;7.00;99.90
3816;DHT22;1923;48.154;11.536;2022-11-20T16:48:13;6.90;99.90
3816;DHT22;1923;48.154;11.536;2022-11-20T16:50:47;7.00;99.90
3816;DHT22;1923;48.154;11.536;2022-11-20T16:53:16;6.90;99.90
3816;DHT22;1923;48.154;11.536;2022-11-20T16:55:44;6.90;99.90
3816;DHT22;1923;48.154;11.536;2022-11-20T16:58:13;6.80;99.90
3816;DHT22;1923;48.154;11.536;2022-11-20T17:00:41;6.80;99.90
3816;DHT22;1923;48.154;11.536;2022-11-20T17:03:18;6.70;99.90
3816;DHT22;1923;48.154;11.536;2022-11-20T17:05:47;6.80;99.90
3816;DHT22;1923;48.154;11.536;2022-11-20T17:08:15;6.70;99.90
3816;DHT22;1923;48.154;11.536;2022-11-20T17:10:43;6.60;99.90
3816;DHT22;1923;48.154;11.536;2022-11-20T17:13:11;6.60;99.90
3816;DHT22;1923;48.154;11.536;2022-11-20T17:15:39;6.50;99.90
3816;DHT22;1923;48.154;11.536;2022-11-20T17:18:07;6.50;99.90
3816;DHT22;1923;48.154;11.536;2022-11-20T17:20:36;6.40;99.90
3816;DHT22;1923;48.154;11.536;2022-11-20T17:23:04;6.40;99.90
3816;DHT22;1923;48.154;11.536;2022-11-20T17:25:32;6.30;99.90
3816;DHT22;1923;48.154;11.536;2022-11-20T17:28:00;6.40;99.90
3816;DHT22;1923;48.154;11.536;2022-11-20T17:30:29;6.30;99.90
3816;DHT22;1923;48.154;11.536;2022-11-20T17:32:57;6.30;99.90
3816;DHT22;1923;48.154;11.536;2022-11-20T17:35:25;6.30;99.90
3816;DHT22;1923;48.154;11.536;2022-11-20T17:37:54;6.40;99.90
3816;DHT22;1923;48.154;11.536;2022-11-20T17:40:23;6.40;99.90
3816;DHT22;1923;48.154;11.536;2022-11-20T17:42:53;6.30;99.90
3816;DHT22;1923;48.154;11.536;2022-11-20T17:45:21;6.30;99.90
3816;DHT22;1923;48.154;11.536;2022-11-20T17:47:49;6.20;99.90
3816;DHT22;1923;48.154;11.536;2022-11-20T17:50:18;6.10;99.90
3816;DHT22;1923;48.154;11.536;2022-11-20T17:52:45;6.20;99.90
3816;DHT22;1923;48.154;11.536;2022-11-20T17:55:15;6.10;99.90
3816;DHT22;1923;48.154;11.536;2022-11-20T17:57:43;6.10;99.90
3816;DHT22;1923;48.154;11.536;2022-11-20T18:00:22;6.10;99.90
3816;DHT22;1923;48.154;11.536;2022-11-20T18:02:51;6.00;99.90
3816;DHT22;1923;48.154;11.536;2022-11-20T18:05:19;6.00;99.90
3816;DHT22;1923;48.154;11.536;2022-11-20T18:07:51;6.00;99.90
3816;DHT22;1923;48.154;11.536;2022-11-20T18:10:21;5.90;99.90
3816;DHT22;1923;48.154;11.536;2022-11-20T18:12:49;5.90;99.90
3816;DHT22;1923;48.154;11.536;2022-11-20T18:15:19;5.90;99.90
3816;DHT22;1923;48.154;11.536;2022-11-20T18:17:47;6.00;99.90
3816;DHT22;1923;48.154;11.536;2022-11-20T18:20:15;5.90;99.90
3816;DHT22;1923;48.154;11.536;2022-11-20T18:22:56;5.90;99.90
3816;DHT22;1923;48.154;11.536;2022-11-20T18:25:26;6.00;99.90
3816;DHT22;1923;48.154;11.536;2022-11-20T18:27:54;5.80;99.90
3816;DHT22;1923;48.154;11.536;2022-11-20T18:30:23;5.90;99.90
3816;DHT22;1923;48.154;11.536;2022-11-20T18:32:51;5.90;99.90
3816;DHT22;1923;48.154;11.536;2022-11-20T18:35:19;5.90;99.90
3816;DHT22;1923;48.154;11.536;2022-11-20T18:37:47;5.90;99.90
3816;DHT22;1923;48.154;11.536;2022-11-20T18:40:15;6.00;99.90
3816;DHT22;1923;48.154;11.536;2022-11-20T18:42:45;6.00;99.90
3816;DHT22;1923;48.154;11.536;2022-11-20T18:45:30;6.00;99.90
3816;DHT22;1923;48.154;11.536;2022-11-20T18:47:58;6.10;99.90
3816;DHT22;1923;48.154;11.536;2022-11-20T18:50:26;6.10;99.90
3816;DHT22;1923;48.154;11.536;2022-11-20T18:52:54;6.00;99.90
3816;DHT22;1923;48.154;11.536;2022-11-20T18:55:22;6.00;99.90
3816;DHT22;1923;48.154;11.536;2022-11-20T18:57:52;6.00;99.90
3816;DHT22;1923;48.154;11.536;2022-11-20T19:00:22;5.80;99.90
3816;DHT22;1923;48.154;11.536;2022-11-20T19:02:51;5.90;99.90
3816;DHT22;1923;48.154;11.536;2022-11-20T19:05:20;5.80;99.90
3816;DHT22;1923;48.154;11.536;2022-11-20T19:07:48;6.00;99.90
3816;DHT22;1923;48.154;11.536;2022-11-20T19:10:17;5.90;99.90
3816;DHT22;1923;48.154;11.536;2022-11-20T19:12:46;5.80;99.90
3816;DHT22;1923;48.154;11.536;2022-11-20T19:15:15;5.80;99.90
3816;DHT22;1923;48.154;11.536;2022-11-20T19:17:43;5.80;99.90
3816;DHT22;1923;48.154;11.536;2022-11-20T19:20:11;5.80;99.90
3816;DHT22;1923;48.154;11.536;2022-11-20T19:22:39;5.70;99.90
3816;DHT22;1923;48.154;11.536;2022-11-20T19:25:08;5.70;99.90
3816;DHT22;1923;48.154;11.536;2022-11-20T19:27:36;5.70;99.90
3816;DHT22;1923;48.154;11.536;2022-11-20T19:30:05;5.70;99.90
3816;DHT22;1923;48.154;11.536;2022-11-20T19:32:34;5.80;99.90
3816;DHT22;1923;48.154;11.536;2022-11-20T19:35:03;5.70;99.90
3816;DHT22;1923;48.154;11.536;2022-11-20T19:37:32;5.70;99.90
3816;DHT22;1923;48.154;11.536;2022-11-20T19:40:00;5.80;99.90
3816;DHT22;1923;48.154;11.536;2022-11-20T19:42:31;5.70;99.90
3816;DHT22;1923;48.154;11.536;2022-11-20T19:44:58;5.70;99.90
3816;DHT22;1923;48.154;11.536;2022-11-20T19:47:26;5.80;99.90
3816;DHT22;1923;48.154;11.536;2022-11-20T19:50:16;5.80;99.90
3816;DHT22;1923;48.154;11.536;2022-11-20T19:52:44;5.80;99.90
3816;DHT22;1923;48.154;11.536;2022-11-20T19:55:12;5.80;99.90
3816;DHT22;1923;48.154;11.536;2022-11-20T19:57:40;5.90;99.90
3816;DHT22;1923;48.154;11.536;2022-11-20T20:00:09;5.90;99.90
3816;DHT22;1923;48.154;11.536;2022-11-20T20:02:38;5.90;99.90
3816;DHT22;1923;48.154;11.536;2022-11-20T20:05:06;5.90;99.90
3816;DHT22;1923;48.154;11.536;2022-11-20T20:07:36;5.90;99.90
3816;DHT22;1923;48.154;11.536;2022-11-20T20:10:06;5.90;99.90
3816;DHT22;1923;48.154;11.536;2022-11-20T20:12:35;5.90;99.90
3816;DHT22;1923;48.154;11.536;2022-11-20T20:15:03;5.90;99.90
3816;DHT22;1923;48.154;11.536;2022-11-20T20:17:31;5.90;99.90
3816;DHT22;1923;48.154;11.536;2022-11-20T20:19:59;6.00;99.90
3816;DHT22;1923;48.154;11.536;2022-11-20T20:22:28;6.00;99.90
3816;DHT22;1923;48.154;11.536;2022-11-20T20:24:57;5.90;99.90
3816;DHT22;1923;48.154;11.536;2022-11-20T20:27:25;6.00;99.90
3816;DHT22;1923;48.154;11.536;2022-11-20T20:29:53;6.00;99.90
3816;DHT22;1923;48.154;11.536;2022-11-20T20:32:21;6.00;99.90
3816;DHT22;1923;48.154;11.536;2022-11-20T20:34:49;6.10;99.90
3816;DHT22;1923;48.154;11.536;2022-11-20T20:37:17;6.20;99.90
3816;DHT22;1923;48.154;11.536;2022-11-20T20:39:46;6.20;99.90
3816;DHT22;1923;48.154;11.536;2022-11-20T20:42:15;6.20;99.90
3816;DHT22;1923;48.154;11.536;2022-11-20T20:44:43;6.10;99.90
3816;DHT22;1923;48.154;11.536;2022-11-20T20:47:29;6.10;99.90
3816;DHT22;1923;48.154;11.536;2022-11-20T20:49:57;6.20;99.90
3816;DHT22;1923;48.154;11.536;2022-11-20T20:52:25;6.20;99.90
3816;DHT22;1923;48.154;11.536;2022-11-20T20:54:54;6.10;99.90
3816;DHT22;1923;48.154;11.536;2022-11-20T20:57:23;6.10;99.90
3816;DHT22;1923;48.154;11.536;2022-11-20T20:59:53;6.30;99.90
3816;DHT22;1923;48.154;11.536;2022-11-20T21:02:22;6.20;99.90
3816;DHT22;1923;48.154;11.536;2022-11-20T21:04:50;6.20;99.90
3816;DHT22;1923;48.154;11.536;2022-11-20T21:07:19;6.20;99.90
3816;DHT22;1923;48.154;11.536;2022-11-20T21:09:47;6.30;99.90
3816;DHT22;1923;48.154;11.536;2022-11-20T21:12:15;6.40;99.90
3816;DHT22;1923;48.154;11.536;2022-11-20T21:14:44;6.50;99.90
3816;DHT22;1923;48.154;11.536;2022-11-20T21:17:12;6.50;99.90
3816;DHT22;1923;48.154;11.536;2022-11-20T21:19:41;6.70;99.90
3816;DHT22;1923;48.154;11.536;2022-11-20T21:22:09;6.70;99.90
3816;DHT22;1923;48.154;11.536;2022-11-20T21:24:36;6.70;99.90
3816;DHT22;1923;48.154;11.536;2022-11-20T21:27:04;6.70;99.90
3816;DHT22;1923;48.154;11.536;2022-11-20T21:29:32;6.80;99.90
3816;DHT22;1923;48.154;11.536;2022-11-20T21:32:02;6.80;99.90
3816;DHT22;1923;48.154;11.536;2022-11-20T21:34:30;7.00;99.90
3816;DHT22;1923;48.154;11.536;2022-11-20T21:36:58;7.20;99.90
3816;DHT22;1923;48.154;11.536;2022-11-20T21:39:26;7.20;99.90
3816;DHT22;1923;48.154;11.536;2022-11-20T21:41:55;7.20;99.90
3816;DHT22;1923;48.154;11.536;2022-11-20T21:44:23;7.30;99.90
3816;DHT22;1923;48.154;11.536;2022-11-20T21:46:59;7.20;99.90
3816;DHT22;1923;48.154;11.536;2022-11-20T21:49:28;7.30;99.90
3816;DHT22;1923;48.154;11.536;2022-11-20T21:51:56;7.20;99.90
3816;DHT22;1923;48.154;11.536;2022-11-20T21:54:24;7.20;99.90
3816;DHT22;1923;48.154;11.536;2022-11-20T21:56:52;7.10;99.90
3816;DHT22;1923;48.154;11.536;2022-11-20T21:59:20;7.10;99.90
3816;DHT22;1923;48.154;11.536;2022-11-20T22:01:49;7.00;99.90
3816;DHT22;1923;48.154;11.536;2022-11-20T22:04:17;6.80;99.90
3816;DHT22;1923;48.154;11.536;2022-11-20T22:06:47;6.80;99.90
3816;DHT22;1923;48.154;11.536;2022-11-20T22:09:15;6.60;99.90
3816;DHT22;1923;48.154;11.536;2022-11-20T22:11:43;6.60;99.90
3816;DHT22;1923;48.154;11.536;2022-11-20T22:14:11;6.60;99.90
3816;DHT22;1923;48.154;11.536;2022-11-20T22:16:50;6.40;99.90
3816;DHT22;1923;48.154;11.536;2022-11-20T22:19:20;6.40;99.90
3816;DHT22;1923;48.154;11.536;2022-11-20T22:21:50;6.50;99.90
3816;DHT22;1923;48.154;11.536;2022-11-20T22:24:19;6.50;99.90
3816;DHT22;1923;48.154;11.536;2022-11-20T22:26:48;6.50;99.90
3816;DHT22;1923;48.154;11.536;2022-11-20T22:29:18;6.50;99.90
3816;DHT22;1923;48.154;11.536;2022-11-20T22:31:50;6.50;99.90
3816;DHT22;1923;48.154;11.536;2022-11-20T22:34:18;6.60;99.90
3816;DHT22;1923;48.154;11.536;2022-11-20T22:36:47;6.70;99.90
3816;DHT22;1923;48.154;11.536;2022-11-20T22:39:16;6.70;99.90
3816;DHT22;1923;48.154;11.536;2022-11-20T22:41:44;6.70;99.90
3816;DHT22;1923;48.154;11.536;2022-11-20T22:44:13;6.70;99.90
3816;DHT22;1923;48.154;11.536;2022-11-20T22:46:42;6.60;99.90
3816;DHT22;1923;48.154;11.536;2022-11-20T22:49:10;6.50;99.90
3816;DHT22;1923;48.154;11.536;2022-11-20T22:51:39;6.40;99.90
3816;DHT22;1923;48.154;11.536;2022-11-20T22:54:10;6.30;99.90
3816;DHT22;1923;48.154;11.536;2022-11-20T22:56:40;6.20;99.90
3816;DHT22;1923;48.154;11.536;2022-11-20T22:59:08;5.90;99.90
3816;DHT22;1923;48.154;11.536;2022-11-20T23:01:37;5.90;99.90
3816;DHT22;1923;48.154;11.536;2022-11-20T23:04:08;5.80;99.90
3816;DHT22;1923;48.154;11.536;2022-11-20T23:06:36;5.80;99.90
3816;DHT22;1923;48.154;11.536;2022-11-20T23:09:05;5.80;99.90
3816;DHT22;1923;48.154;11.536;2022-11-20T23:11:34;5.80;99.90
3816;DHT22;1923;48.154;11.536;2022-11-20T23:14:05;5.70;99.90
3816;DHT22;1923;48.154;11.536;2022-11-20T23:16:34;5.70;99.90
3816;DHT22;1923;48.154;11.536;2022-11-20T23:19:04;5.70;99.90
3816;DHT22;1923;48.154;11.536;2022-11-20T23:21:33;5.60;99.90
3816;DHT22;1923;48.154;11.536;2022-11-20T23:24:03;5.60;99.90
3816;DHT22;1923;48.154;11.536;2022-11-20T23:26:33;5.60;99.90
3816;DHT22;1923;48.154;11.536;2022-11-20T23:29:04;5.60;99.90
3816;DHT22;1923;48.154;11.536;2022-11-20T23:31:33;5.50;99.90
3816;DHT22;1923;48.154;11.536;2022-11-20T23:34:02;5.60;99.90
3816;DHT22;1923;48.154;11.536;2022-11-20T23:36:30;5.50;99.90
3816;DHT22;1923;48.154;11.536;2022-11-20T23:38:58;5.50;99.90
3816;DHT22;1923;48.154;11.536;2022-11-20T23:41:26;5.60;99.90
3816;DHT22;1923;48.154;11.536;2022-11-20T23:43:54;5.60;99.90
3816;DHT22;1923;48.154;11.536;2022-11-20T23:46:23;5.60;99.90
